Etusivu
METAR-TAF:

METAR-TAF

Lentoasemat :

Lugano, Sveitsi

Leveyspiiri: 46-00N, Pituuspiiri: 008-58E, korkeus merenpinnasta: 273 m

Tämänhetkinen sää

Tämä raportti tehtiin 21 minuuttia sitten, kello 15.50 UTC
Tuuli 5 kn etelästä
Lämpötila 16°C
Kosteus 31%
Ilmanpaine 1029 hPa
Näkyvyys 10 km tai enemmän
ei pilviä alle 1500 m:ssä eikä cumulonimbus-pilviä

METAR: LSZA 211550Z 19005KT CAVOK 16/M01 Q1029 NOSIG

Aika: 17:11 (16:11 UTC)

Sääennuste

Tämä raportti tehtiin 1 tunti ja 46 minuuttia sitten, kello 14.25 UTC
Ennuste voimassa 21. päivästä klo 15 UTC - 21. päivään klo 24 UTC
Tuuli 5 kn etelästä
Näkyvyys 10 km tai enemmän
ei pilviä alle 1500 m:ssä eikä cumulonimbus-pilviä

TAF: LSZA 211425Z 2115/2124 18005KT CAVOK

Säähavainnot ja -ennusteet yli 4000 lentoasemalta (METAR- ja TAF-raportit).

Käytössä olevat sääasemat on merkitty karttaan keltaisilla ja punaisilla pisteillä.

Aseta hiiri pisteen päälle nähdäksesi sääaseman nimen.

Klikkaa sitten nähdäksesi säähavainnot ja -ennusteet.

Kartan vaihtaminen: klikkaa mustalla rastilla varustettuja vihreitä pisteitä, niin voit zoomata sisään; viivalla varustettua vihreää pistettä, niin voit zoomata ulos tai vihreitä nuolia, niin pääset viereisille kartoille.


METAR-TAF: